Barrow, AK (99723)

5:35 AM AKST on February 11, 2016 (GMT -0900)
Barrow Utilities | | Change Station
CLOSE
Current Station
Personal Weather Station
Location: BARROW, AK
Elevation: 30 ft
Nearby Weather Stations

Elev 30 ft 71.29 °N, 156.78 °W | Updated 4 seconds ago

Clear
Clear
-4.1 °F
Feels Like -4 °F
N
2.0
Wind Variable Wind from NNE
Gusts 3.0 mph

Today
High -- | Low -- °F
--% Chance of Precip.
Yesterday
High -- | Low -- °F
Precip. -- in
Pressure 30.23 in
Visibility 10.0 miles
Clouds Clear
Windchill -4 °F
Dew Point -7 °F
Humidity 87%
Rainfall 0.00 in
Snow Depth Not available.
10:35 AM 4:45 PM
Waxing Crescent, 12% visible
METAR PABR 111353Z 05015KT 10SM CLR M22/M24 A3022 RMK AO2 SLP235 T12171239
Pressure 30.23 in
Visibility 10.0 miles
Clouds Clear
Windchill -4 °F
Dew Point -7 °F
Humidity 87%
Rainfall 0.00 in
Snow Depth Not available.
10:35 AM 4:45 PM
Waxing Crescent, 12% visible
METAR PABR 111353Z 05015KT 10SM CLR M22/M24 A3022 RMK AO2 SLP235 T12171239

10-Day Weather Forecast

Almanac

Astronomy

Feb. 11, 2016 Rise Set
Actual Time
Civil Twilight
Nautical Twilight
Astronomical Twilight
Moon
Length of Visible Light
Length of Day
Tomorrow will be .
, % of the Moon is Illuminated

Today's Extremes

State Highs State Lows

Community

WunderPhotos

Upload Photos

1,892,054 photos uploaded!

WunderBlog® & News

Nearby

Air Quality

  Air Quality AQ Index Pollutant
Not available.

Snow Depth

Station Depth Elevation

Earthquake Activity

City Distance Mag. Time & Date
Minimum magnitude displayed is 2.5.

Coastal Water Temperatures

Place Temperature

Stations

Nearby Weather Stations

Station Location Temp. Windchill Dew Point Humidity Wind Precip. Elev Updated Type
                   

Watches & Warnings

There are currently no watches in effect.